Spartan — WDF5483 — position and weather

sailwx.info

Track history (hours):
 
Tides and Currents Weather Stations Pressure Air Temp Water Temp Dewpoint Dewpoint Depression Visibility Wind Speed Wind Dir Waves Ship Positions

Spartan

Owner: Occidental Chemical Corporation, Dallas, TX. More information available from US FCC via Universal Licensing System and Coast Guard Vessel Documentation Center.

Last reported at 2017-Sep-25 00:30 UTC. Time now 2017-Sep-25 00:44 UTC.
Position N 46°45' W 092°07'.

Length 33 m; draft 4.2 m.

Type: Tug. MMSI: 367463740.

Date/timePositionNaut miles runAvg speedWind from/ knotsBaromVisibWave heightAir tempDewpointWater temp
2017-Sep-25 00:30N 46°45' W 092°07'1 1.5
2017-Sep-25 00:00N 46°44' W 092°07'0 0.0
2017-Sep-24 23:28N 46°44' W 092°07'0 0.0
2017-Sep-24 22:58N 46°44' W 092°07'0 0.0
2017-Sep-24 22:28N 46°44' W 092°07'0 0.0
2017-Sep-24 21:58N 46°44' W 092°07'0 0.0
2017-Sep-24 21:28N 46°44' W 092°07'0 0.0
2017-Sep-24 20:58N 46°44' W 092°07'0 0.0
2017-Sep-24 20:16N 46°44' W 092°07'0 0.0
2017-Sep-24 19:58N 46°44' W 092°07'0 0.0
2017-Sep-24 19:28N 46°44' W 092°07'0 0.0
2017-Sep-24 18:58N 46°44' W 092°07'0 0.0
2017-Sep-24 18:19N 46°44' W 092°07'0 0.0
2017-Sep-24 17:52N 46°44' W 092°07'0 0.0
2017-Sep-24 17:16N 46°44' W 092°07'0 0.0
2017-Sep-24 16:52N 46°44' W 092°07'0 0.0
2017-Sep-24 16:22N 46°44' W 092°07'0 0.0
2017-Sep-24 15:52N 46°44' W 092°07'0 0.0
2017-Sep-24 15:04N 46°44' W 092°07'0 0.0
2017-Sep-24 14:52N 46°44' W 092°07'0 0.0
2017-Sep-24 14:22N 46°44' W 092°07'0 0.0
2017-Sep-24 13:52N 46°44' W 092°07'0 0.0
2017-Sep-24 13:25N 46°44' W 092°07'0 0.0
2017-Sep-24 12:52N 46°44' W 092°07'0 0.0
2017-Sep-24 12:25N 46°44' W 092°07'0 0.0
2017-Sep-24 11:55N 46°44' W 092°07'0 0.0
2017-Sep-24 11:22N 46°44' W 092°07'0 0.0
2017-Sep-24 10:55N 46°44' W 092°07'0 0.0
2017-Sep-24 10:25N 46°44' W 092°07'0 0.0
2017-Sep-24 09:43N 46°44' W 092°07'0 0.0
2017-Sep-24 09:28N 46°44' W 092°07'0 0.2
2017-Sep-24 09:01N 46°44' W 092°07'1 1.1
2017-Sep-24 08:30N 46°45' W 092°07'1 2.8
2017-Sep-24 08:00N 46°46' W 092°06'2 3.6
2017-Sep-24 07:30N 46°47' W 092°04'2 4.8
2017-Sep-24 07:00N 46°48' W 092°01'3 6.9
2017-Sep-24 06:30N 46°49' W 091°56'3 6.9
2017-Sep-24 06:00N 46°51' W 091°52'3 6.8
2017-Sep-24 05:30N 46°52' W 091°47'4 7.0
2017-Sep-24 05:00N 46°53' W 091°42'4 7.1
2017-Sep-24 04:28N 46°55' W 091°37'306 6.0
2017-Sep-22 01:17N 45°51' W 084°23'2 8.0
2017-Sep-22 01:00N 45°51' W 084°27'4 8.0
2017-Sep-22 00:29N 45°51' W 084°33'6 7.8
2017-Sep-21 23:42N 45°49' W 084°41'2 7.7
2017-Sep-21 23:29N 45°49' W 084°43'4 7.9
2017-Sep-21 23:00N 45°49' W 084°49'4 7.8
2017-Sep-21 22:30N 45°49' W 084°54'4 7.8
2017-Sep-21 22:00N 45°50' W 085°00'4 7.9
2017-Sep-21 21:30N 45°50' W 085°06'3 6.3
2017-Sep-21 21:00N 45°47' W 085°09'4 7.6
2017-Sep-21 20:30N 45°44' W 085°11'4 8.0
2017-Sep-21 20:00N 45°40' W 085°14'4 8.1
2017-Sep-21 19:30N 45°37' W 085°18'4 8.0
2017-Sep-21 19:00N 45°34' W 085°21'4 8.0
2017-Sep-21 18:30N 45°31' W 085°25'4 8.0
2017-Sep-21 18:00N 45°28' W 085°28'4 8.0
2017-Sep-21 17:30N 45°24' W 085°32'4 8.1
2017-Sep-21 17:00N 45°21' W 085°35'4 8.1
2017-Sep-21 16:30N 45°18' W 085°38'4 8.2
2017-Sep-21 16:00N 45°15' W 085°42'4 8.1
2017-Sep-21 15:30N 45°11' W 085°45'4 8.0
2017-Sep-21 15:00N 45°08' W 085°49'  
2017-Sep-19 04:26N 44°57' W 086°04'4 8.4
2017-Sep-19 03:59N 44°59' W 085°60'18 8.3
2017-Sep-19 01:48N 45°14' W 085°45'3 8.8
2017-Sep-19 01:30N 45°16' W 085°43'4 8.7
2017-Sep-19 01:00N 45°20' W 085°39'4 8.6
2017-Sep-19 00:30N 45°23' W 085°36'4 8.5
2017-Sep-19 00:00N 45°27' W 085°32'4 8.5
2017-Sep-18 23:30N 45°30' W 085°28'4 8.5
2017-Sep-18 23:00N 45°33' W 085°25'4 8.6
2017-Sep-18 22:30N 45°37' W 085°21'4 8.6
2017-Sep-18 22:00N 45°40' W 085°17'4 8.6
2017-Sep-18 21:30N 45°44' W 085°13'4 8.3
2017-Sep-18 21:00N 45°46' W 085°09'4 7.4
2017-Sep-18 20:30N 45°50' W 085°07'4 8.4
2017-Sep-18 20:00N 45°50' W 085°01'4 8.5
2017-Sep-18 19:29N 45°50' W 084°55'4 8.5
2017-Sep-18 19:00N 45°49' W 084°49'4 8.2
2017-Sep-18 18:30N 45°49' W 084°43'4 8.2
2017-Sep-18 18:00N 45°47' W 084°38'4 8.3
2017-Sep-18 17:30N 45°45' W 084°33'4 8.1
2017-Sep-18 16:59N 45°42' W 084°28'4 8.2
2017-Sep-18 16:30N 45°41' W 084°22'4 8.3
2017-Sep-18 16:00N 45°41' W 084°16'4 8.3
2017-Sep-18 15:30N 45°39' W 084°11'14 8.5
2017-Sep-18 13:49N 45°34' W 083°52'3 8.6
2017-Sep-18 13:30N 45°32' W 083°49'4 8.6
2017-Sep-18 13:00N 45°31' W 083°43'4 8.5
2017-Sep-18 12:30N 45°29' W 083°38'4 8.5
2017-Sep-18 12:00N 45°27' W 083°32'4 8.3
2017-Sep-18 11:29N 45°25' W 083°27'25 7.7
2017-Sep-18 08:15N 45°05' W 083°06'2 7.8
2017-Sep-18 07:57N 45°02' W 083°05'5 7.8
2017-Sep-18 07:21N 44°58' W 083°03'3 7.7
2017-Sep-18 07:00N 44°55' W 083°02'  
Track history (hours):
 
Tides and Currents Weather Stations Pressure Air Temp Water Temp Dewpoint Dewpoint Depression Visibility Wind Speed Wind Dir Waves Ship Positions

Spartan

Owner: Occidental Chemical Corporation, Dallas, TX. More information available from US FCC via Universal Licensing System and Coast Guard Vessel Documentation Center.

Last reported at 2017-Sep-25 00:30 UTC. Time now 2017-Sep-25 00:44 UTC.
Position N 46°45' W 092°07'.

Length 33 m; draft 4.2 m.

Type: Tug. MMSI: 367463740.

Date/timePositionNaut miles runAvg speedWind from/ knotsBaromVisibWave heightAir tempDewpointWater temp
2017-Sep-25 00:30N 46°45' W 092°07'1 1.5
2017-Sep-25 00:00N 46°44' W 092°07'0 0.0
2017-Sep-24 23:28N 46°44' W 092°07'0 0.0
2017-Sep-24 22:58N 46°44' W 092°07'0 0.0
2017-Sep-24 22:28N 46°44' W 092°07'0 0.0
2017-Sep-24 21:58N 46°44' W 092°07'0 0.0
2017-Sep-24 21:28N 46°44' W 092°07'0 0.0
2017-Sep-24 20:58N 46°44' W 092°07'0 0.0
2017-Sep-24 20:16N 46°44' W 092°07'0 0.0
2017-Sep-24 19:58N 46°44' W 092°07'0 0.0
2017-Sep-24 19:28N 46°44' W 092°07'0 0.0
2017-Sep-24 18:58N 46°44' W 092°07'0 0.0
2017-Sep-24 18:19N 46°44' W 092°07'0 0.0
2017-Sep-24 17:52N 46°44' W 092°07'0 0.0
2017-Sep-24 17:16N 46°44' W 092°07'0 0.0
2017-Sep-24 16:52N 46°44' W 092°07'0 0.0
2017-Sep-24 16:22N 46°44' W 092°07'0 0.0
2017-Sep-24 15:52N 46°44' W 092°07'0 0.0
2017-Sep-24 15:04N 46°44' W 092°07'0 0.0
2017-Sep-24 14:52N 46°44' W 092°07'0 0.0
2017-Sep-24 14:22N 46°44' W 092°07'0 0.0
2017-Sep-24 13:52N 46°44' W 092°07'0 0.0
2017-Sep-24 13:25N 46°44' W 092°07'0 0.0
2017-Sep-24 12:52N 46°44' W 092°07'0 0.0
2017-Sep-24 12:25N 46°44' W 092°07'0 0.0
2017-Sep-24 11:55N 46°44' W 092°07'0 0.0
2017-Sep-24 11:22N 46°44' W 092°07'0 0.0
2017-Sep-24 10:55N 46°44' W 092°07'0 0.0
2017-Sep-24 10:25N 46°44' W 092°07'0 0.0
2017-Sep-24 09:43N 46°44' W 092°07'0 0.0
2017-Sep-24 09:28N 46°44' W 092°07'0 0.2
2017-Sep-24 09:01N 46°44' W 092°07'1 1.1
2017-Sep-24 08:30N 46°45' W 092°07'1 2.8
2017-Sep-24 08:00N 46°46' W 092°06'2 3.6
2017-Sep-24 07:30N 46°47' W 092°04'2 4.8
2017-Sep-24 07:00N 46°48' W 092°01'3 6.9
2017-Sep-24 06:30N 46°49' W 091°56'3 6.9
2017-Sep-24 06:00N 46°51' W 091°52'3 6.8
2017-Sep-24 05:30N 46°52' W 091°47'4 7.0
2017-Sep-24 05:00N 46°53' W 091°42'4 7.1
2017-Sep-24 04:28N 46°55' W 091°37'306 6.0
2017-Sep-22 01:17N 45°51' W 084°23'2 8.0
2017-Sep-22 01:00N 45°51' W 084°27'4 8.0
2017-Sep-22 00:29N 45°51' W 084°33'6 7.8
2017-Sep-21 23:42N 45°49' W 084°41'2 7.7
2017-Sep-21 23:29N 45°49' W 084°43'4 7.9
2017-Sep-21 23:00N 45°49' W 084°49'4 7.8
2017-Sep-21 22:30N 45°49' W 084°54'4 7.8
2017-Sep-21 22:00N 45°50' W 085°00'4 7.9
2017-Sep-21 21:30N 45°50' W 085°06'3 6.3
2017-Sep-21 21:00N 45°47' W 085°09'4 7.6
2017-Sep-21 20:30N 45°44' W 085°11'4 8.0
2017-Sep-21 20:00N 45°40' W 085°14'4 8.1
2017-Sep-21 19:30N 45°37' W 085°18'4 8.0
2017-Sep-21 19:00N 45°34' W 085°21'4 8.0
2017-Sep-21 18:30N 45°31' W 085°25'4 8.0
2017-Sep-21 18:00N 45°28' W 085°28'4 8.0
2017-Sep-21 17:30N 45°24' W 085°32'4 8.1
2017-Sep-21 17:00N 45°21' W 085°35'4 8.1
2017-Sep-21 16:30N 45°18' W 085°38'4 8.2
2017-Sep-21 16:00N 45°15' W 085°42'4 8.1
2017-Sep-21 15:30N 45°11' W 085°45'4 8.0
2017-Sep-21 15:00N 45°08' W 085°49'  
2017-Sep-19 04:26N 44°57' W 086°04'4 8.4
2017-Sep-19 03:59N 44°59' W 085°60'18 8.3
2017-Sep-19 01:48N 45°14' W 085°45'3 8.8
2017-Sep-19 01:30N 45°16' W 085°43'4 8.7
2017-Sep-19 01:00N 45°20' W 085°39'4 8.6
2017-Sep-19 00:30N 45°23' W 085°36'4 8.5
2017-Sep-19 00:00N 45°27' W 085°32'4 8.5
2017-Sep-18 23:30N 45°30' W 085°28'4 8.5
2017-Sep-18 23:00N 45°33' W 085°25'4 8.6
2017-Sep-18 22:30N 45°37' W 085°21'4 8.6
2017-Sep-18 22:00N 45°40' W 085°17'4 8.6
2017-Sep-18 21:30N 45°44' W 085°13'4 8.3
2017-Sep-18 21:00N 45°46' W 085°09'4 7.4
2017-Sep-18 20:30N 45°50' W 085°07'4 8.4
2017-Sep-18 20:00N 45°50' W 085°01'4 8.5
2017-Sep-18 19:29N 45°50' W 084°55'4 8.5
2017-Sep-18 19:00N 45°49' W 084°49'4 8.2
2017-Sep-18 18:30N 45°49' W 084°43'4 8.2
2017-Sep-18 18:00N 45°47' W 084°38'4 8.3
2017-Sep-18 17:30N 45°45' W 084°33'4 8.1
2017-Sep-18 16:59N 45°42' W 084°28'4 8.2
2017-Sep-18 16:30N 45°41' W 084°22'4 8.3
2017-Sep-18 16:00N 45°41' W 084°16'4 8.3
2017-Sep-18 15:30N 45°39' W 084°11'14 8.5
2017-Sep-18 13:49N 45°34' W 083°52'3 8.6
2017-Sep-18 13:30N 45°32' W 083°49'4 8.6
2017-Sep-18 13:00N 45°31' W 083°43'4 8.5
2017-Sep-18 12:30N 45°29' W 083°38'4 8.5
2017-Sep-18 12:00N 45°27' W 083°32'4 8.3
2017-Sep-18 11:29N 45°25' W 083°27'25 7.7
2017-Sep-18 08:15N 45°05' W 083°06'2 7.8
2017-Sep-18 07:57N 45°02' W 083°05'5 7.8
2017-Sep-18 07:21N 44°58' W 083°03'3 7.7
2017-Sep-18 07:00N 44°55' W 083°02'  

Dump ship's entire track history